Portada
METAR-TAF:

METAR-TAF

Aeroports :

Kajaani, Finlàndia

latitud: 64-17N, longitud: 027-41E, altitud: 143 m

Observació

L'informe es va fer fa 33 minuts, a les 01:20 UTC
Vent 5 kt del Nord/Nord-Oest
Temperatura -10°C
Humitat 92%
Pressió 1007 hPa
Visibilitat 10 km o més

METAR: EFKI 200120Z AUTO 34005KT 9999 NCD M10/M11 Q1007

Hora: 03:53 (01:53 UTC)

Pronòstic

L'informe es va fer fa 8 hores i 26 minuts, a les 17:27 UTC
Pronòstic vàlid del 19 a les 18 UTC al 19 a les 22 UTC
Vent 9 kt del Nord/Nord-Oest
Visibilitat 10 km o més
Cel ennuvolat a una alçada de 1100 ft
Evolucionant progressivament
l' 19 a les 18 UTC al 19 a les 20 UTC
Cel ennuvolat a una alçada de 2000 ft

TAF: EFKI 191727Z 1918/1922 33009KT 9999 BKN011 BECMG 1918/1920 BKN020

Observacions i pronòstics meteorològics de més de 4000 aeroports (METAR i TAF).

Les estacions disponibles són els punts grocs i vermells al mapa.

Posi el ratolí al punt desitjat per veure el nom de l'estació.

Feu clic per veure les observacions i els pronòstics meteorològics.

Per canviar el mapa: feu clic els botons verds amb una creu de color negre per apropar; al botó verd amb un guió per allunyar la imatge; o en les fletxes verdes per a mapes adjacents.


METAR-TAF: